sensor_id;sensor_type;location;lat;lon;timestamp;P1;durP1;ratioP1;P2;durP2;ratioP2
48034;SDS011;33812;46.480;6.834;2023-03-01T00:01:55;8.13;;;2.85;;
48034;SDS011;33812;46.480;6.834;2023-03-01T00:05:57;14.27;;;3.55;;
48034;SDS011;33812;46.480;6.834;2023-03-01T00:09:59;10.48;;;3.22;;
48034;SDS011;33812;46.480;6.834;2023-03-01T00:14:02;14.73;;;3.53;;
48034;SDS011;33812;46.480;6.834;2023-03-01T00:18:06;8.60;;;3.03;;
48034;SDS011;33812;46.480;6.834;2023-03-01T00:22:08;7.55;;;2.92;;
48034;SDS011;33812;46.480;6.834;2023-03-01T00:26:10;15.52;;;3.95;;
48034;SDS011;33812;46.480;6.834;2023-03-01T00:30:16;12.60;;;3.38;;
48034;SDS011;33812;46.480;6.834;2023-03-01T00:34:18;7.25;;;2.38;;
48034;SDS011;33812;46.480;6.834;2023-03-01T00:38:20;8.88;;;2.95;;
48034;SDS011;33812;46.480;6.834;2023-03-01T00:42:21;11.15;;;3.33;;
48034;SDS011;33812;46.480;6.834;2023-03-01T00:46:25;7.20;;;2.95;;
48034;SDS011;33812;46.480;6.834;2023-03-01T00:50:30;6.07;;;2.35;;
48034;SDS011;33812;46.480;6.834;2023-03-01T00:54:31;7.53;;;2.67;;
48034;SDS011;33812;46.480;6.834;2023-03-01T00:58:33;8.88;;;3.38;;
48034;SDS011;33812;46.480;6.834;2023-03-01T01:02:37;9.52;;;3.42;;
48034;SDS011;33812;46.480;6.834;2023-03-01T01:06:40;11.73;;;3.83;;
48034;SDS011;33812;46.480;6.834;2023-03-01T01:10:44;16.55;;;3.95;;
48034;SDS011;33812;46.480;6.834;2023-03-01T01:14:47;10.88;;;3.38;;
48034;SDS011;33812;46.480;6.834;2023-03-01T01:18:50;11.25;;;3.22;;
48034;SDS011;33812;46.480;6.834;2023-03-01T01:22:52;11.88;;;3.33;;
48034;SDS011;33812;46.480;6.834;2023-03-01T01:26:55;11.60;;;3.22;;
48034;SDS011;33812;46.480;6.834;2023-03-01T01:30:57;14.55;;;3.78;;
48034;SDS011;33812;46.480;6.834;2023-03-01T01:35:00;10.32;;;3.20;;
48034;SDS011;33812;46.480;6.834;2023-03-01T01:39:06;11.18;;;3.38;;
48034;SDS011;33812;46.480;6.834;2023-03-01T01:43:15;8.23;;;2.90;;
48034;SDS011;33812;46.480;6.834;2023-03-01T01:47:21;7.63;;;2.50;;
48034;SDS011;33812;46.480;6.834;2023-03-01T01:51:29;6.70;;;2.40;;
48034;SDS011;33812;46.480;6.834;2023-03-01T01:55:41;4.63;;;2.45;;
48034;SDS011;33812;46.480;6.834;2023-03-01T01:59:52;7.38;;;2.75;;
48034;SDS011;33812;46.480;6.834;2023-03-01T02:03:59;9.90;;;3.10;;
48034;SDS011;33812;46.480;6.834;2023-03-01T02:08:04;8.65;;;3.22;;
48034;SDS011;33812;46.480;6.834;2023-03-01T02:12:07;16.30;;;4.28;;
48034;SDS011;33812;46.480;6.834;2023-03-01T02:16:10;12.27;;;3.45;;
48034;SDS011;33812;46.480;6.834;2023-03-01T02:20:15;9.40;;;3.10;;
48034;SDS011;33812;46.480;6.834;2023-03-01T02:24:26;7.15;;;2.80;;
48034;SDS011;33812;46.480;6.834;2023-03-01T02:28:43;16.75;;;3.95;;
48034;SDS011;33812;46.480;6.834;2023-03-01T02:32:46;12.75;;;3.28;;
48034;SDS011;33812;46.480;6.834;2023-03-01T02:36:51;9.13;;;3.20;;
48034;SDS011;33812;46.480;6.834;2023-03-01T02:40:56;10.35;;;3.28;;
48034;SDS011;33812;46.480;6.834;2023-03-01T02:44:59;10.85;;;3.03;;
48034;SDS011;33812;46.480;6.834;2023-03-01T02:49:01;9.75;;;3.15;;
48034;SDS011;33812;46.480;6.834;2023-03-01T02:53:04;9.93;;;3.15;;
48034;SDS011;33812;46.480;6.834;2023-03-01T02:57:12;12.77;;;3.70;;
48034;SDS011;33812;46.480;6.834;2023-03-01T03:01:15;18.50;;;4.63;;
48034;SDS011;33812;46.480;6.834;2023-03-01T03:05:17;12.95;;;3.92;;
48034;SDS011;33812;46.480;6.834;2023-03-01T03:09:21;11.85;;;3.38;;
48034;SDS011;33812;46.480;6.834;2023-03-01T03:13:22;8.88;;;3.00;;
48034;SDS011;33812;46.480;6.834;2023-03-01T03:17:29;16.42;;;4.38;;
48034;SDS011;33812;46.480;6.834;2023-03-01T03:21:31;17.45;;;4.05;;
48034;SDS011;33812;46.480;6.834;2023-03-01T03:25:33;11.27;;;3.22;;
48034;SDS011;33812;46.480;6.834;2023-03-01T03:29:37;8.93;;;2.88;;
48034;SDS011;33812;46.480;6.834;2023-03-01T03:33:40;8.25;;;3.38;;
48034;SDS011;33812;46.480;6.834;2023-03-01T03:37:42;13.02;;;4.07;;
48034;SDS011;33812;46.480;6.834;2023-03-01T03:42:01;11.20;;;3.35;;
48034;SDS011;33812;46.480;6.834;2023-03-01T03:46:06;8.63;;;3.05;;
48034;SDS011;33812;46.480;6.834;2023-03-01T03:50:12;9.93;;;3.63;;
48034;SDS011;33812;46.480;6.834;2023-03-01T03:54:15;13.10;;;4.18;;
48034;SDS011;33812;46.480;6.834;2023-03-01T03:58:17;4.57;;;2.20;;
48034;SDS011;33812;46.480;6.834;2023-03-01T04:02:20;10.07;;;3.03;;
48034;SDS011;33812;46.480;6.834;2023-03-01T04:06:24;16.40;;;4.20;;
48034;SDS011;33812;46.480;6.834;2023-03-01T04:10:26;8.15;;;2.83;;
48034;SDS011;33812;46.480;6.834;2023-03-01T04:14:28;22.27;;;5.28;;
48034;SDS011;33812;46.480;6.834;2023-03-01T04:18:30;10.05;;;3.38;;
48034;SDS011;33812;46.480;6.834;2023-03-01T04:22:33;10.80;;;3.30;;
48034;SDS011;33812;46.480;6.834;2023-03-01T04:26:35;17.33;;;4.22;;
48034;SDS011;33812;46.480;6.834;2023-03-01T04:30:38;8.77;;;3.15;;
48034;SDS011;33812;46.480;6.834;2023-03-01T04:34:41;9.57;;;3.20;;
48034;SDS011;33812;46.480;6.834;2023-03-01T04:38:44;8.52;;;2.92;;
48034;SDS011;33812;46.480;6.834;2023-03-01T04:42:48;9.57;;;3.05;;
48034;SDS011;33812;46.480;6.834;2023-03-01T04:46:52;8.38;;;3.63;;
48034;SDS011;33812;46.480;6.834;2023-03-01T04:50:54;4.50;;;2.13;;
48034;SDS011;33812;46.480;6.834;2023-03-01T04:54:57;6.55;;;2.20;;
48034;SDS011;33812;46.480;6.834;2023-03-01T04:59:00;4.95;;;2.40;;
48034;SDS011;33812;46.480;6.834;2023-03-01T05:03:05;9.93;;;2.97;;
48034;SDS011;33812;46.480;6.834;2023-03-01T05:07:07;9.70;;;3.30;;
48034;SDS011;33812;46.480;6.834;2023-03-01T05:11:11;9.55;;;3.17;;
48034;SDS011;33812;46.480;6.834;2023-03-01T05:15:13;12.65;;;3.50;;
48034;SDS011;33812;46.480;6.834;2023-03-01T05:19:15;20.73;;;4.68;;
48034;SDS011;33812;46.480;6.834;2023-03-01T05:23:17;14.25;;;3.63;;
48034;SDS011;33812;46.480;6.834;2023-03-01T05:27:20;7.70;;;3.42;;
48034;SDS011;33812;46.480;6.834;2023-03-01T05:31:22;2.45;;;2.25;;
48034;SDS011;33812;46.480;6.834;2023-03-01T05:35:24;15.25;;;5.13;;
48034;SDS011;33812;46.480;6.834;2023-03-01T05:39:28;5.80;;;3.38;;
48034;SDS011;33812;46.480;6.834;2023-03-01T05:47:39;9.48;;;3.00;;
48034;SDS011;33812;46.480;6.834;2023-03-01T05:51:47;15.25;;;4.35;;
48034;SDS011;33812;46.480;6.834;2023-03-01T05:55:50;16.73;;;4.95;;
48034;SDS011;33812;46.480;6.834;2023-03-01T05:59:53;5.85;;;3.28;;
48034;SDS011;33812;46.480;6.834;2023-03-01T06:03:56;4.95;;;3.33;;
48034;SDS011;33812;46.480;6.834;2023-03-01T06:07:58;14.60;;;4.72;;
48034;SDS011;33812;46.480;6.834;2023-03-01T06:12:01;13.75;;;4.72;;
48034;SDS011;33812;46.480;6.834;2023-03-01T06:16:07;19.53;;;9.83;;
48034;SDS011;33812;46.480;6.834;2023-03-01T06:20:10;12.63;;;4.07;;
48034;SDS011;33812;46.480;6.834;2023-03-01T06:24:14;17.08;;;9.68;;
48034;SDS011;33812;46.480;6.834;2023-03-01T06:28:16;7.70;;;4.47;;
48034;SDS011;33812;46.480;6.834;2023-03-01T06:32:20;10.38;;;3.58;;
48034;SDS011;33812;46.480;6.834;2023-03-01T06:36:22;8.30;;;3.70;;
48034;SDS011;33812;46.480;6.834;2023-03-01T06:40:24;7.07;;;3.63;;
48034;SDS011;33812;46.480;6.834;2023-03-01T06:44:26;4.35;;;2.90;;
48034;SDS011;33812;46.480;6.834;2023-03-01T06:48:30;10.35;;;3.88;;
48034;SDS011;33812;46.480;6.834;2023-03-01T06:52:31;7.28;;;3.08;;
48034;SDS011;33812;46.480;6.834;2023-03-01T06:56:33;7.68;;;2.95;;
48034;SDS011;33812;46.480;6.834;2023-03-01T07:00:35;8.95;;;3.25;;
48034;SDS011;33812;46.480;6.834;2023-03-01T07:04:38;13.30;;;3.97;;
48034;SDS011;33812;46.480;6.834;2023-03-01T07:08:40;8.18;;;3.20;;
48034;SDS011;33812;46.480;6.834;2023-03-01T07:12:42;11.52;;;4.03;;
48034;SDS011;33812;46.480;6.834;2023-03-01T07:16:44;9.23;;;2.72;;
48034;SDS011;33812;46.480;6.834;2023-03-01T07:20:48;5.38;;;2.90;;
48034;SDS011;33812;46.480;6.834;2023-03-01T07:24:51;14.53;;;4.53;;
48034;SDS011;33812;46.480;6.834;2023-03-01T07:28:53;9.23;;;2.75;;
48034;SDS011;33812;46.480;6.834;2023-03-01T07:32:56;10.52;;;2.45;;
48034;SDS011;33812;46.480;6.834;2023-03-01T07:37:00;14.02;;;6.53;;
48034;SDS011;33812;46.480;6.834;2023-03-01T07:41:02;9.90;;;3.58;;
48034;SDS011;33812;46.480;6.834;2023-03-01T07:45:06;14.02;;;3.15;;
48034;SDS011;33812;46.480;6.834;2023-03-01T07:49:08;4.63;;;2.90;;
48034;SDS011;33812;46.480;6.834;2023-03-01T07:53:11;6.05;;;2.80;;
48034;SDS011;33812;46.480;6.834;2023-03-01T07:57:13;12.02;;;3.70;;
48034;SDS011;33812;46.480;6.834;2023-03-01T08:01:16;4.95;;;2.92;;
48034;SDS011;33812;46.480;6.834;2023-03-01T08:05:19;6.85;;;3.10;;
48034;SDS011;33812;46.480;6.834;2023-03-01T08:09:23;4.55;;;2.70;;
48034;SDS011;33812;46.480;6.834;2023-03-01T08:13:25;7.30;;;2.90;;
48034;SDS011;33812;46.480;6.834;2023-03-01T08:17:27;13.25;;;3.78;;
48034;SDS011;33812;46.480;6.834;2023-03-01T08:21:29;6.93;;;2.60;;
48034;SDS011;33812;46.480;6.834;2023-03-01T08:25:32;4.55;;;2.65;;
48034;SDS011;33812;46.480;6.834;2023-03-01T08:29:34;10.05;;;3.22;;
48034;SDS011;33812;46.480;6.834;2023-03-01T08:33:36;15.77;;;4.05;;
48034;SDS011;33812;46.480;6.834;2023-03-01T08:37:37;6.90;;;2.92;;
48034;SDS011;33812;46.480;6.834;2023-03-01T08:41:40;4.90;;;2.50;;
48034;SDS011;33812;46.480;6.834;2023-03-01T08:45:42;3.33;;;2.38;;
48034;SDS011;33812;46.480;6.834;2023-03-01T08:49:44;5.13;;;2.63;;
48034;SDS011;33812;46.480;6.834;2023-03-01T08:53:46;7.95;;;3.00;;
48034;SDS011;33812;46.480;6.834;2023-03-01T08:57:49;14.95;;;3.97;;
48034;SDS011;33812;46.480;6.834;2023-03-01T09:01:51;5.13;;;2.63;;
48034;SDS011;33812;46.480;6.834;2023-03-01T09:05:53;3.78;;;2.60;;
48034;SDS011;33812;46.480;6.834;2023-03-01T09:10:00;3.08;;;2.67;;
48034;SDS011;33812;46.480;6.834;2023-03-01T09:14:04;7.00;;;3.30;;
48034;SDS011;33812;46.480;6.834;2023-03-01T09:18:07;4.60;;;2.72;;
48034;SDS011;33812;46.480;6.834;2023-03-01T09:22:08;4.00;;;2.38;;
48034;SDS011;33812;46.480;6.834;2023-03-01T09:26:14;7.32;;;3.30;;
48034;SDS011;33812;46.480;6.834;2023-03-01T09:30:22;3.08;;;2.10;;
48034;SDS011;33812;46.480;6.834;2023-03-01T09:34:24;17.52;;;4.82;;
48034;SDS011;33812;46.480;6.834;2023-03-01T09:38:26;4.57;;;2.65;;
48034;SDS011;33812;46.480;6.834;2023-03-01T09:42:28;10.57;;;3.28;;
48034;SDS011;33812;46.480;6.834;2023-03-01T09:46:36;3.40;;;2.20;;
48034;SDS011;33812;46.480;6.834;2023-03-01T09:50:42;2.85;;;1.90;;
48034;SDS011;33812;46.480;6.834;2023-03-01T09:54:46;6.25;;;2.53;;
48034;SDS011;33812;46.480;6.834;2023-03-01T09:58:52;4.53;;;2.33;;
48034;SDS011;33812;46.480;6.834;2023-03-01T10:03:01;6.35;;;2.90;;
48034;SDS011;33812;46.480;6.834;2023-03-01T10:07:17;5.05;;;2.70;;
48034;SDS011;33812;46.480;6.834;2023-03-01T10:11:28;6.53;;;2.97;;
48034;SDS011;33812;46.480;6.834;2023-03-01T10:15:34;3.55;;;2.67;;
48034;SDS011;33812;46.480;6.834;2023-03-01T10:19:46;4.63;;;2.50;;
48034;SDS011;33812;46.480;6.834;2023-03-01T10:23:49;4.90;;;2.47;;
48034;SDS011;33812;46.480;6.834;2023-03-01T10:27:53;4.27;;;2.20;;
48034;SDS011;33812;46.480;6.834;2023-03-01T10:32:00;19.95;;;4.70;;
48034;SDS011;33812;46.480;6.834;2023-03-01T10:36:07;3.58;;;2.25;;
48034;SDS011;33812;46.480;6.834;2023-03-01T10:40:10;4.70;;;2.50;;
48034;SDS011;33812;46.480;6.834;2023-03-01T10:44:21;4.20;;;2.78;;
48034;SDS011;33812;46.480;6.834;2023-03-01T10:52:40;5.40;;;2.72;;
48034;SDS011;33812;46.480;6.834;2023-03-01T10:56:46;4.00;;;2.58;;
48034;SDS011;33812;46.480;6.834;2023-03-01T11:00:51;5.43;;;2.75;;
48034;SDS011;33812;46.480;6.834;2023-03-01T11:04:56;6.53;;;2.80;;
48034;SDS011;33812;46.480;6.834;2023-03-01T11:09:12;5.20;;;2.30;;
48034;SDS011;33812;46.480;6.834;2023-03-01T11:13:16;4.53;;;2.13;;
48034;SDS011;33812;46.480;6.834;2023-03-01T11:17:21;7.75;;;3.00;;
48034;SDS011;33812;46.480;6.834;2023-03-01T11:21:26;8.60;;;2.95;;
48034;SDS011;33812;46.480;6.834;2023-03-01T11:25:34;5.50;;;2.58;;
48034;SDS011;33812;46.480;6.834;2023-03-01T11:29:41;3.80;;;2.15;;
48034;SDS011;33812;46.480;6.834;2023-03-01T11:33:48;3.20;;;2.03;;
48034;SDS011;33812;46.480;6.834;2023-03-01T11:37:56;11.13;;;3.30;;
48034;SDS011;33812;46.480;6.834;2023-03-01T11:42:11;4.22;;;2.50;;
48034;SDS011;33812;46.480;6.834;2023-03-01T11:46:25;3.50;;;2.20;;
48034;SDS011;33812;46.480;6.834;2023-03-01T11:50:37;5.38;;;2.40;;
48034;SDS011;33812;46.480;6.834;2023-03-01T11:54:46;15.80;;;3.90;;
48034;SDS011;33812;46.480;6.834;2023-03-01T12:03:32;6.32;;;2.83;;
48034;SDS011;33812;46.480;6.834;2023-03-01T12:07:43;3.40;;;2.22;;
48034;SDS011;33812;46.480;6.834;2023-03-01T12:12:04;3.75;;;2.10;;
48034;SDS011;33812;46.480;6.834;2023-03-01T12:16:32;6.07;;;2.28;;
48034;SDS011;33812;46.480;6.834;2023-03-01T12:20:51;2.40;;;1.70;;
48034;SDS011;33812;46.480;6.834;2023-03-01T12:25:07;3.28;;;2.05;;
48034;SDS011;33812;46.480;6.834;2023-03-01T12:29:23;6.65;;;2.53;;
48034;SDS011;33812;46.480;6.834;2023-03-01T12:33:30;6.38;;;2.60;;
48034;SDS011;33812;46.480;6.834;2023-03-01T12:37:47;3.70;;;2.30;;
48034;SDS011;33812;46.480;6.834;2023-03-01T12:41:59;4.65;;;2.53;;
48034;SDS011;33812;46.480;6.834;2023-03-01T12:46:10;1.92;;;1.70;;
48034;SDS011;33812;46.480;6.834;2023-03-01T12:50:23;5.13;;;2.63;;
48034;SDS011;33812;46.480;6.834;2023-03-01T12:54:28;4.38;;;1.95;;
48034;SDS011;33812;46.480;6.834;2023-03-01T12:58:32;6.72;;;2.60;;
48034;SDS011;33812;46.480;6.834;2023-03-01T13:02:38;6.47;;;2.38;;
48034;SDS011;33812;46.480;6.834;2023-03-01T13:06:52;7.40;;;2.55;;
48034;SDS011;33812;46.480;6.834;2023-03-01T13:11:05;5.82;;;2.20;;
48034;SDS011;33812;46.480;6.834;2023-03-01T13:15:29;8.73;;;2.75;;
48034;SDS011;33812;46.480;6.834;2023-03-01T13:19:34;5.65;;;2.33;;
48034;SDS011;33812;46.480;6.834;2023-03-01T13:23:38;7.72;;;2.83;;
48034;SDS011;33812;46.480;6.834;2023-03-01T13:27:41;6.50;;;2.60;;
48034;SDS011;33812;46.480;6.834;2023-03-01T13:36:00;4.32;;;2.50;;
48034;SDS011;33812;46.480;6.834;2023-03-01T13:40:07;5.60;;;2.53;;
48034;SDS011;33812;46.480;6.834;2023-03-01T13:44:47;5.90;;;2.22;;
48034;SDS011;33812;46.480;6.834;2023-03-01T13:48:50;2.33;;;1.95;;
48034;SDS011;33812;46.480;6.834;2023-03-01T13:52:54;6.78;;;2.65;;
48034;SDS011;33812;46.480;6.834;2023-03-01T13:56:59;5.25;;;2.03;;
48034;SDS011;33812;46.480;6.834;2023-03-01T14:01:04;7.28;;;2.55;;
48034;SDS011;33812;46.480;6.834;2023-03-01T14:05:08;6.97;;;2.38;;
48034;SDS011;33812;46.480;6.834;2023-03-01T14:09:14;2.92;;;2.15;;
48034;SDS011;33812;46.480;6.834;2023-03-01T14:13:28;10.43;;;3.22;;
48034;SDS011;33812;46.480;6.834;2023-03-01T14:17:52;6.78;;;2.70;;
48034;SDS011;33812;46.480;6.834;2023-03-01T14:22:12;8.15;;;2.78;;
48034;SDS011;33812;46.480;6.834;2023-03-01T14:26:22;3.45;;;2.42;;
48034;SDS011;33812;46.480;6.834;2023-03-01T14:30:25;5.03;;;2.67;;
48034;SDS011;33812;46.480;6.834;2023-03-01T14:34:30;4.70;;;2.70;;
48034;SDS011;33812;46.480;6.834;2023-03-01T14:38:34;14.13;;;3.53;;
48034;SDS011;33812;46.480;6.834;2023-03-01T14:42:37;19.02;;;4.05;;
48034;SDS011;33812;46.480;6.834;2023-03-01T14:46:39;11.38;;;3.55;;
48034;SDS011;33812;46.480;6.834;2023-03-01T14:50:43;5.95;;;2.67;;
48034;SDS011;33812;46.480;6.834;2023-03-01T14:54:47;4.05;;;2.63;;
48034;SDS011;33812;46.480;6.834;2023-03-01T14:58:51;8.95;;;3.13;;
48034;SDS011;33812;46.480;6.834;2023-03-01T15:02:55;3.60;;;2.55;;
48034;SDS011;33812;46.480;6.834;2023-03-01T15:06:59;5.80;;;2.65;;
48034;SDS011;33812;46.480;6.834;2023-03-01T15:11:05;16.05;;;4.32;;
48034;SDS011;33812;46.480;6.834;2023-03-01T15:15:19;9.00;;;3.13;;
48034;SDS011;33812;46.480;6.834;2023-03-01T15:23:31;8.23;;;3.22;;
48034;SDS011;33812;46.480;6.834;2023-03-01T15:27:33;6.68;;;3.17;;
48034;SDS011;33812;46.480;6.834;2023-03-01T15:31:36;9.60;;;3.45;;
48034;SDS011;33812;46.480;6.834;2023-03-01T15:35:40;8.80;;;3.28;;
48034;SDS011;33812;46.480;6.834;2023-03-01T15:39:52;5.55;;;3.35;;
48034;SDS011;33812;46.480;6.834;2023-03-01T15:43:54;4.13;;;3.03;;
48034;SDS011;33812;46.480;6.834;2023-03-01T15:47:57;4.25;;;3.10;;
48034;SDS011;33812;46.480;6.834;2023-03-01T15:52:02;4.95;;;2.88;;
48034;SDS011;33812;46.480;6.834;2023-03-01T15:56:06;8.65;;;3.00;;
48034;SDS011;33812;46.480;6.834;2023-03-01T16:00:09;6.70;;;3.35;;
48034;SDS011;33812;46.480;6.834;2023-03-01T16:04:14;7.53;;;3.47;;
48034;SDS011;33812;46.480;6.834;2023-03-01T16:08:22;10.18;;;4.15;;
48034;SDS011;33812;46.480;6.834;2023-03-01T16:12:26;7.70;;;2.90;;
48034;SDS011;33812;46.480;6.834;2023-03-01T16:16:27;19.38;;;4.65;;
48034;SDS011;33812;46.480;6.834;2023-03-01T16:20:29;13.57;;;4.30;;
48034;SDS011;33812;46.480;6.834;2023-03-01T16:24:31;20.13;;;4.93;;
48034;SDS011;33812;46.480;6.834;2023-03-01T16:28:37;8.40;;;3.92;;
48034;SDS011;33812;46.480;6.834;2023-03-01T16:32:39;14.57;;;4.88;;
48034;SDS011;33812;46.480;6.834;2023-03-01T16:36:41;23.00;;;5.22;;
48034;SDS011;33812;46.480;6.834;2023-03-01T16:40:46;18.05;;;4.45;;
48034;SDS011;33812;46.480;6.834;2023-03-01T16:44:51;15.90;;;4.03;;
48034;SDS011;33812;46.480;6.834;2023-03-01T16:48:55;21.33;;;4.78;;
48034;SDS011;33812;46.480;6.834;2023-03-01T16:52:57;23.58;;;6.47;;
48034;SDS011;33812;46.480;6.834;2023-03-01T16:56:59;15.30;;;4.20;;
48034;SDS011;33812;46.480;6.834;2023-03-01T17:01:06;17.52;;;4.57;;
48034;SDS011;33812;46.480;6.834;2023-03-01T17:05:10;12.40;;;3.97;;
48034;SDS011;33812;46.480;6.834;2023-03-01T17:09:12;16.23;;;5.65;;
48034;SDS011;33812;46.480;6.834;2023-03-01T17:13:14;39.20;;;7.95;;
48034;SDS011;33812;46.480;6.834;2023-03-01T17:17:17;11.45;;;4.18;;
48034;SDS011;33812;46.480;6.834;2023-03-01T17:21:19;11.65;;;4.22;;
48034;SDS011;33812;46.480;6.834;2023-03-01T17:25:20;16.23;;;4.80;;
48034;SDS011;33812;46.480;6.834;2023-03-01T17:29:22;13.25;;;4.68;;
48034;SDS011;33812;46.480;6.834;2023-03-01T17:33:26;18.67;;;3.65;;
48034;SDS011;33812;46.480;6.834;2023-03-01T17:37:32;21.23;;;5.40;;
48034;SDS011;33812;46.480;6.834;2023-03-01T17:41:33;13.13;;;4.82;;
48034;SDS011;33812;46.480;6.834;2023-03-01T17:45:35;20.88;;;5.43;;
48034;SDS011;33812;46.480;6.834;2023-03-01T17:53:46;17.67;;;5.40;;
48034;SDS011;33812;46.480;6.834;2023-03-01T17:57:48;25.85;;;6.50;;
48034;SDS011;33812;46.480;6.834;2023-03-01T18:01:51;25.45;;;4.93;;
48034;SDS011;33812;46.480;6.834;2023-03-01T18:05:52;16.42;;;4.40;;
48034;SDS011;33812;46.480;6.834;2023-03-01T18:09:57;21.08;;;5.75;;
48034;SDS011;33812;46.480;6.834;2023-03-01T18:13:59;10.23;;;5.33;;
48034;SDS011;33812;46.480;6.834;2023-03-01T18:18:01;11.40;;;4.45;;
48034;SDS011;33812;46.480;6.834;2023-03-01T18:22:02;10.68;;;5.30;;
48034;SDS011;33812;46.480;6.834;2023-03-01T18:26:06;16.10;;;6.78;;
48034;SDS011;33812;46.480;6.834;2023-03-01T18:30:10;20.80;;;6.80;;
48034;SDS011;33812;46.480;6.834;2023-03-01T18:34:12;12.50;;;6.85;;
48034;SDS011;33812;46.480;6.834;2023-03-01T18:38:14;17.98;;;6.53;;
48034;SDS011;33812;46.480;6.834;2023-03-01T18:42:18;15.15;;;7.35;;
48034;SDS011;33812;46.480;6.834;2023-03-01T18:46:21;10.52;;;6.63;;
48034;SDS011;33812;46.480;6.834;2023-03-01T18:50:22;29.55;;;16.15;;
48034;SDS011;33812;46.480;6.834;2023-03-01T18:54:25;15.30;;;8.00;;
48034;SDS011;33812;46.480;6.834;2023-03-01T18:58:28;16.17;;;8.63;;
48034;SDS011;33812;46.480;6.834;2023-03-01T19:02:30;13.80;;;6.70;;
48034;SDS011;33812;46.480;6.834;2023-03-01T19:06:33;11.40;;;6.45;;
48034;SDS011;33812;46.480;6.834;2023-03-01T19:10:35;10.90;;;6.57;;
48034;SDS011;33812;46.480;6.834;2023-03-01T19:14:38;10.13;;;6.35;;
48034;SDS011;33812;46.480;6.834;2023-03-01T19:18:44;8.02;;;5.35;;
48034;SDS011;33812;46.480;6.834;2023-03-01T19:22:49;23.25;;;14.25;;
48034;SDS011;33812;46.480;6.834;2023-03-01T19:26:52;25.02;;;18.55;;
48034;SDS011;33812;46.480;6.834;2023-03-01T19:30:59;24.05;;;15.00;;
48034;SDS011;33812;46.480;6.834;2023-03-01T19:35:01;19.60;;;10.88;;
48034;SDS011;33812;46.480;6.834;2023-03-01T19:39:04;16.38;;;9.15;;
48034;SDS011;33812;46.480;6.834;2023-03-01T19:43:06;16.00;;;8.70;;
48034;SDS011;33812;46.480;6.834;2023-03-01T19:47:10;27.50;;;7.82;;
48034;SDS011;33812;46.480;6.834;2023-03-01T19:51:11;25.13;;;7.90;;
48034;SDS011;33812;46.480;6.834;2023-03-01T19:55:13;29.13;;;7.82;;
48034;SDS011;33812;46.480;6.834;2023-03-01T19:59:15;19.30;;;7.35;;
48034;SDS011;33812;46.480;6.834;2023-03-01T20:03:25;20.75;;;6.15;;
48034;SDS011;33812;46.480;6.834;2023-03-01T20:07:27;19.40;;;7.37;;
48034;SDS011;33812;46.480;6.834;2023-03-01T20:11:29;17.15;;;6.45;;
48034;SDS011;33812;46.480;6.834;2023-03-01T20:15:30;17.20;;;6.53;;
48034;SDS011;33812;46.480;6.834;2023-03-01T20:19:34;21.52;;;6.30;;
48034;SDS011;33812;46.480;6.834;2023-03-01T20:23:35;15.85;;;6.03;;
48034;SDS011;33812;46.480;6.834;2023-03-01T20:27:37;11.00;;;5.65;;
48034;SDS011;33812;46.480;6.834;2023-03-01T20:31:39;12.77;;;5.13;;
48034;SDS011;33812;46.480;6.834;2023-03-01T20:35:43;15.63;;;5.57;;
48034;SDS011;33812;46.480;6.834;2023-03-01T20:39:44;9.93;;;5.35;;
48034;SDS011;33812;46.480;6.834;2023-03-01T20:43:46;15.68;;;5.28;;
48034;SDS011;33812;46.480;6.834;2023-03-01T20:47:53;13.40;;;5.60;;
48034;SDS011;33812;46.480;6.834;2023-03-01T20:51:57;15.50;;;5.55;;
48034;SDS011;33812;46.480;6.834;2023-03-01T20:56:00;13.90;;;6.00;;
48034;SDS011;33812;46.480;6.834;2023-03-01T21:00:03;24.77;;;7.13;;
48034;SDS011;33812;46.480;6.834;2023-03-01T21:04:06;7.13;;;4.25;;
48034;SDS011;33812;46.480;6.834;2023-03-01T21:08:10;13.02;;;5.18;;
48034;SDS011;33812;46.480;6.834;2023-03-01T21:12:12;11.57;;;4.82;;
48034;SDS011;33812;46.480;6.834;2023-03-01T21:16:14;7.07;;;4.43;;
48034;SDS011;33812;46.480;6.834;2023-03-01T21:20:17;14.98;;;5.97;;
48034;SDS011;33812;46.480;6.834;2023-03-01T21:24:21;11.07;;;4.82;;
48034;SDS011;33812;46.480;6.834;2023-03-01T21:28:23;9.80;;;4.72;;
48034;SDS011;33812;46.480;6.834;2023-03-01T21:32:26;6.43;;;3.97;;
48034;SDS011;33812;46.480;6.834;2023-03-01T21:40:36;11.15;;;5.05;;
48034;SDS011;33812;46.480;6.834;2023-03-01T21:44:40;10.70;;;5.22;;
48034;SDS011;33812;46.480;6.834;2023-03-01T21:48:42;12.57;;;5.30;;
48034;SDS011;33812;46.480;6.834;2023-03-01T21:52:45;7.47;;;4.68;;
48034;SDS011;33812;46.480;6.834;2023-03-01T21:56:48;7.35;;;4.70;;
48034;SDS011;33812;46.480;6.834;2023-03-01T22:00:50;8.60;;;5.03;;
48034;SDS011;33812;46.480;6.834;2023-03-01T22:04:52;7.70;;;4.40;;
48034;SDS011;33812;46.480;6.834;2023-03-01T22:08:57;11.40;;;4.45;;
48034;SDS011;33812;46.480;6.834;2023-03-01T22:13:01;9.88;;;4.57;;
48034;SDS011;33812;46.480;6.834;2023-03-01T22:17:03;11.32;;;4.93;;
48034;SDS011;33812;46.480;6.834;2023-03-01T22:21:05;8.68;;;4.45;;
48034;SDS011;33812;46.480;6.834;2023-03-01T22:25:08;11.88;;;4.85;;
48034;SDS011;33812;46.480;6.834;2023-03-01T22:29:13;11.27;;;5.07;;
48034;SDS011;33812;46.480;6.834;2023-03-01T22:33:16;16.05;;;5.13;;
48034;SDS011;33812;46.480;6.834;2023-03-01T22:37:18;13.20;;;5.22;;
48034;SDS011;33812;46.480;6.834;2023-03-01T22:41:19;9.88;;;4.43;;
48034;SDS011;33812;46.480;6.834;2023-03-01T22:45:23;16.20;;;5.50;;
48034;SDS011;33812;46.480;6.834;2023-03-01T22:49:25;15.63;;;5.50;;
48034;SDS011;33812;46.480;6.834;2023-03-01T22:53:28;18.08;;;5.95;;
48034;SDS011;33812;46.480;6.834;2023-03-01T22:57:29;13.18;;;5.57;;
48034;SDS011;33812;46.480;6.834;2023-03-01T23:01:32;14.57;;;5.72;;
48034;SDS011;33812;46.480;6.834;2023-03-01T23:05:35;16.55;;;6.05;;
48034;SDS011;33812;46.480;6.834;2023-03-01T23:09:37;14.05;;;5.30;;
48034;SDS011;33812;46.480;6.834;2023-03-01T23:13:38;15.50;;;5.72;;
48034;SDS011;33812;46.480;6.834;2023-03-01T23:17:42;10.15;;;4.50;;
48034;SDS011;33812;46.480;6.834;2023-03-01T23:21:44;11.88;;;5.25;;
48034;SDS011;33812;46.480;6.834;2023-03-01T23:25:52;10.25;;;4.82;;
48034;SDS011;33812;46.480;6.834;2023-03-01T23:29:55;15.77;;;5.18;;
48034;SDS011;33812;46.480;6.834;2023-03-01T23:33:58;11.48;;;5.15;;
48034;SDS011;33812;46.480;6.834;2023-03-01T23:38:00;17.42;;;5.82;;
48034;SDS011;33812;46.480;6.834;2023-03-01T23:42:02;10.23;;;5.13;;
48034;SDS011;33812;46.480;6.834;2023-03-01T23:46:04;12.45;;;5.35;;
48034;SDS011;33812;46.480;6.834;2023-03-01T23:50:08;9.93;;;4.75;;
48034;SDS011;33812;46.480;6.834;2023-03-01T23:54:11;12.52;;;5.45;;
48034;SDS011;33812;46.480;6.834;2023-03-01T23:58:15;22.27;;;7.33;;
